Time;durP1;ratioP1;P1;durP2;ratioP2;P2;SDS_P1;SDS_P2;PMS_P1;PMS_P2;Temp;Humidity;BMP_temperature;BMP_pressure;BME280_temperature;BME280_humidity;BME280_pressure;Samples;Min_cycle;Max_cycle;Signal;HPM_P1;HPM_P2
2023/08/10 00:01:34;;;;;;;33.20;6.63;;;;;;;-145.00;81.04;73809.16;5071730;28;20408;-76
2023/08/10 00:04:01;;;;;;;25.70;6.35;;;;;;;-145.00;81.26;73807.06;5070708;28;20048;-76
2023/08/10 00:06:27;;;;;;;23.50;6.47;;;;;;;-145.00;81.05;73796.66;5070858;28;20036;-75
2023/08/10 00:08:54;;;;;;;31.13;6.80;;;;;;;-145.00;80.24;73788.34;5070680;28;20055;-74
2023/08/10 00:11:20;;;;;;;30.70;6.88;;;;;;;-145.00;79.98;73780.00;5070346;28;20040;-75
2023/08/10 00:13:47;;;;;;;30.88;6.97;;;;;;;-145.00;79.80;73771.69;5074459;28;20570;-74
2023/08/10 00:16:15;;;;;;;18.48;6.13;;;;;;;-145.00;79.63;73777.94;5075210;28;20037;-75
2023/08/10 00:18:41;;;;;;;25.10;6.22;;;;;;;-145.00;80.21;73782.09;5070594;28;20055;-75
2023/08/10 00:21:08;;;;;;;27.95;7.00;;;;;;;-145.00;80.70;73796.66;5069486;28;20047;-74
2023/08/10 00:23:35;;;;;;;26.58;6.65;;;;;;;-145.00;81.05;73805.00;5064982;28;20045;-75
2023/08/10 00:26:01;;;;;;;28.83;7.85;;;;;;;-145.00;80.75;73796.66;5069743;28;20131;-72
2023/08/10 00:28:28;;;;;;;24.75;6.68;;;;;;;-145.00;80.58;73788.34;5070798;28;20044;-75
2023/08/10 00:30:55;;;;;;;26.50;7.75;;;;;;;-145.00;80.24;73777.94;5078136;28;20049;-76
2023/08/10 00:33:24;;;;;;;17.00;6.68;;;;;;;-145.00;80.47;73788.34;5068625;28;20136;-76
2023/08/10 00:35:50;;;;;;;27.00;6.80;;;;;;;-145.00;80.73;73792.50;5071330;28;20052;-75
2023/08/10 00:38:17;;;;;;;27.00;7.07;;;;;;;-145.00;80.48;73790.41;5070098;28;20045;-75
2023/08/10 00:40:43;;;;;;;30.10;7.55;;;;;;;-145.00;80.55;73811.25;5069319;28;20040;-75
2023/08/10 00:43:10;;;;;;;36.75;7.22;;;;;;;-145.00;80.41;73805.00;5068451;28;20040;-75
2023/08/10 00:45:38;;;;;;;20.33;6.97;;;;;;;-145.00;79.83;73805.00;5073698;28;20059;-75
2023/08/10 00:48:07;;;;;;;16.00;7.40;;;;;;;-145.00;79.56;73805.00;5073810;28;20048;-75
2023/08/10 00:50:35;;;;;;;22.40;8.68;;;;;;;-145.00;79.57;73800.84;5084946;28;20048;-75
2023/08/10 00:53:01;;;;;;;23.80;9.02;;;;;;;-145.00;80.37;73850.81;5077695;28;20044;-75
2023/08/10 00:55:28;;;;;;;19.05;8.57;;;;;;;-145.00;81.43;73861.22;5073483;28;20488;-75
2023/08/10 00:57:55;;;;;;;23.73;9.00;;;;;;;-145.00;81.24;73850.81;5073553;28;20055;-75
2023/08/10 01:00:21;;;;;;;21.48;8.70;;;;;;;-145.00;81.03;73850.81;5072571;28;20048;-75
2023/08/10 01:02:48;;;;;;;19.17;9.63;;;;;;;-145.00;80.84;73863.28;5078760;28;20233;-75
2023/08/10 01:05:14;;;;;;;24.75;10.00;;;;;;;-145.00;81.61;73875.78;5080574;28;20052;-75
2023/08/10 01:07:51;;;;;;;21.35;8.68;;;;;;;-145.00;80.62;73844.56;5074153;28;20072;-75
2023/08/10 01:10:28;;;;;;;28.40;9.10;;;;;;;-145.00;80.08;73838.31;5074700;28;20047;-75
2023/08/10 01:13:00;;;;;;;22.83;8.80;;;;;;;-145.00;79.76;73829.97;5074967;28;20041;-75
2023/08/10 01:15:36;;;;;;;22.55;9.07;;;;;;;-145.00;79.32;73821.66;5067361;28;20048;-75
2023/08/10 01:18:06;;;;;;;27.98;9.70;;;;;;;-145.00;79.21;73825.81;5071903;28;20516;-76
2023/08/10 01:20:33;;;;;;;18.20;8.57;;;;;;;-145.00;79.04;73817.50;5073281;28;20040;-76
2023/08/10 01:23:13;;;;;;;20.05;9.02;;;;;;;-145.00;79.35;73817.50;5073147;28;20059;-75
2023/08/10 01:25:42;;;;;;;18.55;9.27;;;;;;;-145.00;79.12;73821.66;5065830;28;20040;-76
2023/08/10 01:28:10;;;;;;;22.25;9.10;;;;;;;-145.00;79.30;73819.56;5075865;28;20416;-75
2023/08/10 01:30:37;;;;;;;20.13;8.95;;;;;;;-145.00;78.98;73819.56;5075937;28;20129;-76
2023/08/10 01:33:04;;;;;;;20.58;8.82;;;;;;;-145.00;79.01;73821.66;5072154;28;20508;-75
2023/08/10 01:35:30;;;;;;;28.20;9.20;;;;;;;-145.00;79.01;73819.56;5084356;28;20044;-76
2023/08/10 01:37:56;;;;;;;30.23;9.23;;;;;;;-145.00;79.02;73825.81;5081009;28;20045;-76
2023/08/10 01:40:23;;;;;;;22.83;9.18;;;;;;;-145.00;79.13;73829.97;5076252;28;20119;-76
2023/08/10 01:42:55;;;;;;;28.65;9.00;;;;;;;-145.00;79.87;73844.56;5072813;28;20053;-76
2023/08/10 01:45:22;;;;;;;11.77;8.05;;;;;;;-145.00;80.35;73859.13;5079502;28;20059;-76
2023/08/10 01:47:54;;;;;;;17.08;8.82;;;;;;;-145.00;80.90;73871.63;5072900;28;20071;-76
2023/08/10 01:50:22;;;;;;;16.25;9.02;;;;;;;-145.00;80.59;73850.81;5072093;28;20068;-76
2023/08/10 01:52:51;;;;;;;16.08;9.85;;;;;;;-145.00;80.56;73861.22;5072674;28;20057;-77
2023/08/10 01:55:19;;;;;;;19.60;11.50;;;;;;;-145.00;81.92;73904.94;5071957;28;20052;-76
2023/08/10 01:57:46;;;;;;;19.52;11.75;;;;;;;-145.00;82.00;73890.38;5078026;28;20036;-75
2023/08/10 02:00:14;;;;;;;18.15;10.50;;;;;;;-145.00;81.86;73892.44;5071392;28;20131;-76
2023/08/10 02:02:41;;;;;;;19.75;11.52;;;;;;;-145.00;82.46;73911.19;5072782;28;20048;-76
2023/08/10 02:05:08;;;;;;;17.30;9.95;;;;;;;-145.00;82.10;73888.28;5072301;28;20683;-75
2023/08/10 02:07:35;;;;;;;17.40;10.52;;;;;;;-145.00;82.14;73900.78;5072868;28;20036;-75
2023/08/10 02:10:05;;;;;;;16.77;10.20;;;;;;;-145.00;81.87;73879.97;5075614;28;20071;-75
2023/08/10 02:12:32;;;;;;;15.57;10.00;;;;;;;-145.00;80.95;73854.97;5072139;28;20048;-76
2023/08/10 02:14:59;;;;;;;17.13;10.10;;;;;;;-145.00;80.62;73842.47;5072211;28;20407;-76
2023/08/10 02:17:28;;;;;;;16.08;10.40;;;;;;;-145.00;80.65;73838.31;5071963;28;20127;-76
2023/08/10 02:19:55;;;;;;;16.55;10.18;;;;;;;-145.00;80.39;73829.97;5072388;28;20052;-75
2023/08/10 02:22:23;;;;;;;18.35;10.77;;;;;;;-145.00;80.45;73829.97;5071458;28;20055;-76
2023/08/10 02:24:50;;;;;;;15.35;10.18;;;;;;;-145.00;81.24;73850.81;5072054;28;20051;-75
2023/08/10 02:27:17;;;;;;;14.85;9.90;;;;;;;-145.00;81.96;73857.06;5071729;28;20429;-75
2023/08/10 02:29:44;;;;;;;16.80;11.07;;;;;;;-145.00;82.23;73879.97;5071803;28;20123;-76
2023/08/10 02:32:11;;;;;;;17.80;11.80;;;;;;;-145.00;83.18;73896.63;5074549;28;20043;-76
2023/08/10 02:34:39;;;;;;;15.50;10.73;;;;;;;-145.00;83.07;73875.78;5071777;28;20041;-76
2023/08/10 02:37:05;;;;;;;14.38;10.15;;;;;;;-145.00;82.81;73879.97;5071289;28;20047;-75
2023/08/10 02:39:32;;;;;;;16.30;11.05;;;;;;;-145.00;82.16;73875.78;5079260;28;20049;-75
2023/08/10 02:41:58;;;;;;;17.08;12.10;;;;;;;-145.00;83.67;73909.09;5071145;28;20048;-76
2023/08/10 02:44:25;;;;;;;17.52;12.07;;;;;;;-145.00;84.25;73907.03;5070556;28;20055;-76
2023/08/10 02:46:51;;;;;;;15.23;11.25;;;;;;;-145.00;83.61;73884.13;5071152;28;20048;-76
2023/08/10 02:49:18;;;;;;;17.38;12.73;;;;;;;-145.00;82.00;73867.47;5070311;28;20067;-75
2023/08/10 02:51:46;;;;;;;14.30;10.85;;;;;;;-145.00;83.22;73888.28;5070996;28;20053;-75
2023/08/10 02:54:13;;;;;;;13.90;11.25;;;;;;;-145.00;82.01;73863.28;5070246;28;20455;-75
2023/08/10 02:56:39;;;;;;;15.45;11.38;;;;;;;-145.00;81.35;73842.47;5073154;28;20056;-76
2023/08/10 02:59:06;;;;;;;16.83;11.40;;;;;;;-145.00;81.21;73846.63;5070178;28;20055;-75
2023/08/10 03:01:32;;;;;;;15.27;10.88;;;;;;;-145.00;81.77;73850.81;5070805;28;20041;-76
2023/08/10 03:03:58;;;;;;;13.32;10.10;;;;;;;-145.00;81.61;73842.47;5070559;28;20044;-75
2023/08/10 03:06:25;;;;;;;15.10;12.07;;;;;;;-145.00;82.00;73850.81;5071063;28;20250;-76
2023/08/10 03:08:53;;;;;;;16.40;11.73;;;;;;;-145.00;81.43;73840.41;5070643;28;20048;-75
2023/08/10 03:11:20;;;;;;;22.17;14.43;;;;;;;-145.00;81.89;73854.97;5069950;28;20040;-76
2023/08/10 03:13:46;;;;;;;16.27;11.77;;;;;;;-145.00;81.90;73846.63;5070624;28;20047;-76
2023/08/10 03:16:13;;;;;;;20.40;13.68;;;;;;;-145.00;82.11;73852.88;5069953;28;20051;-76
2023/08/10 03:18:39;;;;;;;19.98;14.23;;;;;;;-145.00;82.74;73873.72;5075568;28;20863;-75
2023/08/10 03:21:06;;;;;;;19.67;14.75;;;;;;;-145.00;83.29;73884.13;5069962;28;20040;-75
2023/08/10 03:23:32;;;;;;;19.55;13.15;;;;;;;-145.00;82.74;73867.47;5062257;28;20051;-76
2023/08/10 03:26:00;;;;;;;18.55;13.10;;;;;;;-145.00;82.72;73875.78;5070256;28;20044;-76
2023/08/10 03:28:27;;;;;;;17.92;13.40;;;;;;;-145.00;81.67;73848.72;5076012;28;20041;-76
2023/08/10 03:30:53;;;;;;;20.13;14.35;;;;;;;-145.00;81.02;73846.63;5070353;28;20083;-75
2023/08/10 03:33:19;;;;;;;17.40;12.52;;;;;;;-145.00;80.87;73840.41;5073816;28;20127;-75
2023/08/10 03:35:46;;;;;;;16.63;12.43;;;;;;;-145.00;80.93;73848.72;5072656;28;20150;-76
2023/08/10 03:38:13;;;;;;;16.25;12.75;;;;;;;-145.00;80.56;73840.41;5075440;28;20123;-75
2023/08/10 03:40:40;;;;;;;23.20;15.05;;;;;;;-145.00;81.03;73873.72;5075014;28;20048;-76
2023/08/10 03:43:08;;;;;;;18.85;13.70;;;;;;;-145.00;81.46;73863.28;5080970;28;20040;-76
2023/08/10 03:45:34;;;;;;;18.60;12.82;;;;;;;-145.00;81.15;73854.97;5064177;28;20044;-76
2023/08/10 03:48:01;;;;;;;20.42;14.75;;;;;;;-145.00;80.28;73846.63;5071217;28;20048;-75
2023/08/10 03:50:27;;;;;;;19.20;13.50;;;;;;;-145.00;79.94;73846.63;5070617;28;20040;-75
2023/08/10 03:52:54;;;;;;;20.60;14.45;;;;;;;-145.00;80.04;73840.41;5070950;28;20511;-76
2023/08/10 03:55:21;;;;;;;18.90;13.63;;;;;;;-145.00;79.91;73838.31;5075832;28;20044;-76
2023/08/10 03:57:48;;;;;;;20.20;13.57;;;;;;;-145.00;79.94;73840.41;5071170;28;20055;-75
2023/08/10 04:00:17;;;;;;;21.67;15.57;;;;;;;-145.00;80.64;73867.47;5069828;28;20045;-75
2023/08/10 04:02:43;;;;;;;18.15;13.52;;;;;;;-145.00;80.87;73871.63;5070519;28;20052;-76
2023/08/10 04:05:10;;;;;;;19.33;14.75;;;;;;;-145.00;80.76;73896.63;5069970;28;20048;-76
2023/08/10 04:07:38;;;;;;;18.77;13.80;;;;;;;-145.00;80.82;73896.63;5071160;28;20037;-76
2023/08/10 04:10:05;;;;;;;19.95;14.27;;;;;;;-145.00;80.40;73879.97;5070339;28;20052;-75
2023/08/10 04:12:32;;;;;;;19.75;14.95;;;;;;;-145.00;80.12;73886.19;5070007;28;20098;-76
2023/08/10 04:14:58;;;;;;;21.40;15.65;;;;;;;-145.00;80.65;73900.78;5070349;28;20044;-75
2023/08/10 04:17:26;;;;;;;21.58;14.70;;;;;;;-145.00;80.22;73884.13;5069058;28;20488;-75
2023/08/10 04:19:53;;;;;;;18.95;13.73;;;;;;;-145.00;79.73;73879.97;5072672;28;20667;-76
2023/08/10 04:22:20;;;;;;;20.92;15.30;;;;;;;-145.00;80.24;73909.09;5073538;28;20052;-75
2023/08/10 04:24:46;;;;;;;18.08;12.77;;;;;;;-145.00;80.72;73911.19;5073980;28;20048;-75
2023/08/10 04:27:13;;;;;;;17.92;13.13;;;;;;;-145.00;80.29;73902.88;5075963;28;20685;-75
2023/08/10 04:29:43;;;;;;;18.50;13.55;;;;;;;-145.00;80.67;73923.69;5074115;28;20054;-76
2023/08/10 04:32:09;;;;;;;18.55;13.48;;;;;;;-145.00;80.56;73927.84;5073377;28;20063;-76
2023/08/10 04:34:37;;;;;;;19.38;14.30;;;;;;;-145.00;81.44;73963.25;5074321;28;20040;-75
2023/08/10 04:37:04;;;;;;;20.25;14.52;;;;;;;-145.00;81.66;73965.34;5075075;28;20044;-75
2023/08/10 04:39:32;;;;;;;19.63;13.90;;;;;;;-145.00;81.28;73954.91;5079043;28;20499;-76
2023/08/10 04:41:58;;;;;;;22.90;15.48;;;;;;;-145.00;82.08;73982.00;5079531;28;20053;-76
2023/08/10 04:44:25;;;;;;;19.55;13.88;;;;;;;-145.00;82.06;73969.50;5076402;28;20389;-76
2023/08/10 04:46:52;;;;;;;18.23;12.75;;;;;;;-145.00;81.34;73950.75;5074150;28;20045;-75
2023/08/10 04:49:18;;;;;;;18.60;13.40;;;;;;;-145.00;80.55;73932.00;5072946;28;20040;-75
2023/08/10 04:51:46;;;;;;;17.27;13.05;;;;;;;-145.00;80.32;73921.59;5072955;28;20411;-74
2023/08/10 04:54:13;;;;;;;20.17;14.98;;;;;;;-145.00;80.24;73925.75;5071708;28;20051;-74
2023/08/10 04:56:39;;;;;;;17.40;13.40;;;;;;;-145.00;80.73;73940.34;5073105;28;20059;-74
2023/08/10 04:59:06;;;;;;;16.75;12.68;;;;;;;-145.00;81.15;73950.75;5072988;28;20040;-74
2023/08/10 05:01:32;;;;;;;19.65;14.02;;;;;;;-145.00;81.30;73952.84;5073008;28;20041;-75
2023/08/10 05:03:59;;;;;;;18.25;12.23;;;;;;;-145.00;80.99;73934.09;5073316;28;20040;-74
2023/08/10 05:06:26;;;;;;;18.33;12.38;;;;;;;-145.00;80.52;73921.59;5072416;28;20036;-74
2023/08/10 05:08:54;;;;;;;16.92;12.32;;;;;;;-145.00;80.20;73917.44;5072813;28;20044;-74
2023/08/10 05:11:20;;;;;;;16.85;12.75;;;;;;;-145.00;80.20;73909.09;5073572;28;20049;-79
2023/08/10 05:13:47;;;;;;;14.80;12.02;;;;;;;-145.00;80.22;73900.78;5074362;28;20041;-76
2023/08/10 05:16:14;;;;;;;17.85;12.38;;;;;;;-145.00;79.97;73898.69;5072824;28;20105;-77
2023/08/10 05:18:41;;;;;;;19.40;13.25;;;;;;;-145.00;80.93;73921.59;5072388;28;20132;-76
2023/08/10 05:21:08;;;;;;;20.65;13.35;;;;;;;-145.00;81.41;73921.59;5071625;28;20041;-75
2023/08/10 05:23:35;;;;;;;18.75;14.45;;;;;;;-145.00;82.21;73934.09;5072456;28;20067;-76
2023/08/10 05:26:02;;;;;;;19.13;14.32;;;;;;;-145.00;82.47;73934.09;5072569;28;20045;-76
2023/08/10 05:28:29;;;;;;;17.83;13.35;;;;;;;-145.00;82.36;73929.94;5071525;28;20051;-76
2023/08/10 05:30:56;;;;;;;23.60;15.52;;;;;;;-145.00;83.78;73950.75;5072487;28;20071;-76
2023/08/10 05:33:22;;;;;;;19.52;14.18;;;;;;;-145.00;83.47;73934.09;5072410;28;20086;-76
2023/08/10 05:35:49;;;;;;;23.77;16.13;;;;;;;-145.00;82.93;73936.19;5072730;28;20066;-76
2023/08/10 05:38:15;;;;;;;23.00;15.77;;;;;;;-145.00;83.28;73934.09;5072031;28;20059;-76
2023/08/10 05:40:42;;;;;;;22.25;15.55;;;;;;;-145.00;84.61;73969.50;5072336;28;20058;-76
2023/08/10 05:43:09;;;;;;;21.67;15.38;;;;;;;-145.00;84.85;73971.56;5071930;28;20044;-76
2023/08/10 05:45:36;;;;;;;20.45;15.43;;;;;;;-145.00;85.49;73996.56;5072477;28;20044;-76
2023/08/10 05:48:10;;;;;;;21.30;14.88;;;;;;;-145.00;85.70;73988.25;5071894;28;20068;-76
2023/08/10 05:50:36;;;;;;;18.52;14.07;;;;;;;-145.00;85.38;73984.06;5074156;28;20041;-76
2023/08/10 05:53:03;;;;;;;21.92;14.35;;;;;;;-145.00;84.57;73996.56;5073982;28;20043;-76
2023/08/10 05:55:30;;;;;;;19.65;13.73;;;;;;;-145.00;83.55;73979.91;5074589;28;20044;-77
2023/08/10 05:57:57;;;;;;;21.70;15.10;;;;;;;-145.00;83.58;73979.91;5073616;28;20063;-76
2023/08/10 06:00:26;;;;;;;19.13;14.48;;;;;;;-145.00;83.45;73965.34;5071433;28;20127;-76
2023/08/10 06:02:53;;;;;;;20.83;14.05;;;;;;;-145.00;83.03;73942.44;5072023;28;20565;-77
2023/08/10 06:05:20;;;;;;;22.02;14.80;;;;;;;-145.00;82.28;73934.09;5071588;28;20044;-76
2023/08/10 06:07:47;;;;;;;19.45;13.63;;;;;;;-145.00;81.54;73907.03;5071757;28;20488;-76
2023/08/10 06:10:14;;;;;;;18.08;12.60;;;;;;;-145.00;82.03;73917.44;5071225;28;20587;-76
2023/08/10 06:12:41;;;;;;;17.73;12.13;;;;;;;-145.00;82.25;73907.03;5071545;28;20048;-76
2023/08/10 06:15:09;;;;;;;14.25;11.20;;;;;;;-145.00;80.90;73886.19;5071238;28;20500;-76
2023/08/10 06:17:38;;;;;;;13.43;10.45;;;;;;;-145.00;79.36;73875.78;5071915;28;20055;-76
2023/08/10 06:20:09;;;;;;;13.00;9.52;;;;;;;-145.00;79.07;73863.28;5071313;28;20055;-76
2023/08/10 06:22:36;;;;;;;12.55;9.75;;;;;;;-145.00;77.74;73859.13;5071528;28;20044;-75
2023/08/10 06:25:03;;;;;;;12.05;9.13;;;;;;;-145.00;78.46;73865.38;5071696;28;20453;-75
2023/08/10 06:27:30;;;;;;;11.45;8.95;;;;;;;-145.00;76.72;73854.97;5075242;28;20139;-76
2023/08/10 06:29:56;;;;;;;14.63;9.38;;;;;;;-145.00;76.64;73904.94;5079002;28;20041;-77
2023/08/10 06:32:23;;;;;;;10.73;8.50;;;;;;;-145.00;77.48;73929.94;5077646;28;20041;-76
2023/08/10 06:34:50;;;;;;;10.40;8.00;;;;;;;-145.00;75.65;73879.97;5070352;28;20050;-76
2023/08/10 06:37:17;;;;;;;12.65;8.45;;;;;;;-145.00;76.23;73879.97;5078008;28;20036;-76
2023/08/10 06:39:51;;;;;;;11.20;7.88;;;;;;;-145.00;76.05;73852.88;5078206;28;20059;-77
2023/08/10 06:42:18;;;;;;;11.98;8.05;;;;;;;-145.00;75.58;73834.16;5074466;28;20131;-76
2023/08/10 06:44:45;;;;;;;12.20;7.55;;;;;;;-145.00;74.61;73825.81;5075197;28;20052;-77
2023/08/10 06:47:11;;;;;;;9.40;7.20;;;;;;;-145.00;74.62;73825.81;5074557;28;20036;-77
2023/08/10 06:49:38;;;;;;;10.35;6.80;;;;;;;-145.00;71.65;73821.66;5074114;28;20036;-76
2023/08/10 06:52:06;;;;;;;9.98;6.32;;;;;;;-145.00;71.74;73821.66;5073135;28;20044;-76
2023/08/10 06:54:33;;;;;;;8.63;5.88;;;;;;;-145.00;70.56;73813.31;5073581;28;20496;-76
2023/08/10 06:57:01;;;;;;;8.35;5.72;;;;;;;-145.00;70.77;73834.16;5074767;28;20064;-76
2023/08/10 06:59:28;;;;;;;10.55;6.57;;;;;;;-145.00;70.44;73825.81;5074037;28;20047;-77
2023/08/10 07:01:55;;;;;;;8.95;6.00;;;;;;;-145.00;71.35;73802.91;5073431;28;20036;-77
2023/08/10 07:04:21;;;;;;;10.00;5.55;;;;;;;-145.00;71.69;73780.00;5072572;28;20107;-77
2023/08/10 07:06:48;;;;;;;7.95;5.63;;;;;;;-145.00;72.10;73761.25;5072539;28;20044;-77
2023/08/10 07:09:16;;;;;;;8.13;4.72;;;;;;;-145.00;69.63;73813.31;5072218;28;20040;-76
2023/08/10 07:11:43;;;;;;;7.93;4.30;;;;;;;-145.00;68.48;73805.00;5072127;28;20068;-76
2023/08/10 07:14:10;;;;;;;11.15;5.32;;;;;;;-145.00;69.53;73788.34;5071094;28;20040;-76
2023/08/10 07:16:36;;;;;;;10.80;4.13;;;;;;;-145.00;67.96;73755.03;5071958;28;20050;-76
2023/08/10 07:19:03;;;;;;;9.40;4.55;;;;;;;-145.00;67.02;73777.94;5071411;28;20045;-76
2023/08/10 07:21:31;;;;;;;9.48;3.65;;;;;;;-145.00;65.28;73782.09;5071851;28;20045;-76
2023/08/10 07:23:58;;;;;;;12.75;4.25;;;;;;;-145.00;65.37;73817.50;5071322;28;20427;-76
2023/08/10 07:26:26;;;;;;;7.95;3.40;;;;;;;-145.00;64.46;73775.84;5071992;28;20501;-76
2023/08/10 07:28:53;;;;;;;11.38;3.80;;;;;;;-145.00;65.02;73725.88;5073950;28;20048;-76
2023/08/10 07:31:20;;;;;;;10.05;3.08;;;;;;;-145.00;65.55;73696.72;5075583;28;20094;-76
2023/08/10 07:33:49;;;;;;;26.40;4.72;;;;;;;-145.00;63.93;73663.41;5074154;28;20139;-76
2023/08/10 07:36:15;;;;;;;16.73;3.67;;;;;;;-145.00;60.43;73634.25;5073081;28;20110;-76
2023/08/10 07:38:42;;;;;;;15.77;3.63;;;;;;;-145.00;60.58;73613.44;5073383;28;20044;-76
2023/08/10 07:41:08;;;;;;;24.55;4.47;;;;;;;-145.00;57.19;73592.59;5071514;28;20401;-75
2023/08/10 07:43:36;;;;;;;23.95;3.72;;;;;;;-145.00;59.02;73555.13;5072035;28;20066;-77
2023/08/10 07:46:03;;;;;;;22.45;3.50;;;;;;;-145.00;59.41;73509.31;5070879;28;20059;-75
2023/08/10 07:48:29;;;;;;;13.77;3.03;;;;;;;-145.00;58.64;73505.16;5070582;28;20056;-76
2023/08/10 07:51:00;;;;;;;28.75;7.13;;;;;;;-145.00;53.02;73476.00;5070545;28;20041;-77
2023/08/10 07:53:28;;;;;;;14.57;2.97;;;;;;;-145.00;54.75;73409.38;5070541;28;20051;-77
2023/08/10 07:55:54;;;;;;;18.60;3.20;;;;;;;-145.00;52.77;73426.03;5070821;28;20043;-76
2023/08/10 07:58:21;;;;;;;27.38;4.10;;;;;;;-145.00;54.63;73384.41;5070192;28;20040;-76
2023/08/10 08:00:49;;;;;;;27.33;5.03;;;;;;;-145.00;53.71;73338.59;5070832;28;20044;-76
2023/08/10 08:03:17;;;;;;;13.88;2.75;;;;;;;-145.00;51.54;73292.78;5070172;28;20044;-78
2023/08/10 08:05:44;;;;;;;26.88;3.90;;;;;;;-145.00;52.36;73253.22;5061837;28;20044;-77
2023/08/10 08:08:10;;;;;;;14.80;3.13;;;;;;;-145.00;49.95;73211.59;5049567;28;20049;-78
2023/08/10 08:10:37;;;;;;;20.17;3.72;;;;;;;-145.00;46.37;73159.53;5068195;28;20047;-77
2023/08/10 08:13:06;;;;;;;21.55;3.25;;;;;;;-145.00;47.83;73151.22;5069924;28;20044;-76
2023/08/10 08:15:33;;;;;;;10.38;2.67;;;;;;;-145.00;45.15;73101.25;5071244;28;20731;-77
2023/08/10 08:18:41;;;;;;;10.23;2.60;;;;;;;-145.00;45.45;73080.44;5070392;28;20102;-77
2023/08/10 08:21:09;;;;;;;14.55;3.10;;;;;;;-145.00;44.88;73122.06;5069676;28;20056;-78
2023/08/10 08:23:37;;;;;;;21.65;3.67;;;;;;;-145.00;45.09;73169.94;5070630;28;20040;-77
2023/08/10 08:26:03;;;;;;;12.93;2.53;;;;;;;-145.00;47.33;73163.72;5072462;28;20052;-77
2023/08/10 08:28:30;;;;;;;20.45;2.53;;;;;;;-145.00;43.55;73080.44;5070644;28;20051;-78
2023/08/10 08:30:56;;;;;;;26.52;3.05;;;;;;;-145.00;42.45;73053.38;5069849;28;20068;-77
2023/08/10 08:33:23;;;;;;;24.10;2.63;;;;;;;-145.00;41.99;72955.50;5070368;28;20048;-77
2023/08/10 08:35:51;;;;;;;29.58;3.55;;;;;;;-145.00;41.61;72951.34;5070479;28;20129;-78
2023/08/10 08:38:21;;;;;;;26.48;3.17;;;;;;;-145.00;40.32;72913.88;5070064;28;20083;-77
2023/08/10 08:40:49;;;;;;;17.23;2.83;;;;;;;-145.00;39.90;72897.22;5070437;28;20052;-77
2023/08/10 08:43:16;;;;;;;15.27;2.58;;;;;;;-145.00;40.52;72926.38;5061466;28;20076;-76
2023/08/10 08:45:43;;;;;;;17.88;3.83;;;;;;;-145.00;39.51;72922.22;5083767;28;20422;-77
2023/08/10 08:48:10;;;;;;;17.13;2.85;;;;;;;-145.00;41.06;72947.19;5069639;28;20051;-77
2023/08/10 08:50:37;;;;;;;38.67;12.70;;;;;;;-145.00;39.81;72907.63;5069794;28;20484;-77
2023/08/10 08:53:07;;;;;;;25.60;4.10;;;;;;;-145.00;38.50;72905.56;5069649;28;20044;-76
2023/08/10 08:55:33;;;;;;;17.13;2.75;;;;;;;-145.00;38.67;72980.50;5070206;28;20361;-77
2023/08/10 08:58:00;;;;;;;16.33;2.83;;;;;;;-145.00;39.92;72943.03;5070035;28;20040;-76
2023/08/10 09:00:26;;;;;;;20.23;2.75;;;;;;;-145.00;39.95;72970.09;5069988;28;20036;-76
2023/08/10 09:02:53;;;;;;;12.27;2.35;;;;;;;-145.00;40.85;73059.59;5069723;28;20484;-77
2023/08/10 09:05:20;;;;;;;22.45;2.85;;;;;;;-145.00;39.81;73092.91;5071494;28;20040;-78
2023/08/10 09:07:46;;;;;;;20.02;2.50;;;;;;;-145.00;41.45;73188.69;5073473;28;20056;-77
2023/08/10 09:10:15;;;;;;;28.88;3.15;;;;;;;-145.00;40.70;73180.34;5073331;28;20040;-76
2023/08/10 09:12:41;;;;;;;14.30;2.47;;;;;;;-145.00;39.26;73184.53;5074204;28;20052;-76
2023/08/10 09:15:13;;;;;;;20.17;3.25;;;;;;;-145.00;41.77;73205.34;5074608;28;20041;-76
2023/08/10 09:17:46;;;;;;;23.38;3.03;;;;;;;-145.00;39.96;73055.44;5076160;28;20108;-76
2023/08/10 09:20:17;;;;;;;;;;;;;;;-145.00;39.80;72947.19;5073092;28;20044;-77
2023/08/10 09:22:44;;;;;;;14.80;2.47;;;;;;;-145.00;38.77;72997.16;5081749;28;19926;-78
2023/08/10 09:25:11;;;;;;;18.60;2.72;;;;;;;-145.00;39.00;73067.94;5074019;28;20043;-77
2023/08/10 09:27:39;;;;;;;18.35;2.85;;;;;;;-145.00;39.51;72988.81;5073902;28;20056;-78
2023/08/10 09:30:07;;;;;;;31.05;2.97;;;;;;;-145.00;39.07;72959.69;5065651;28;20052;-78
2023/08/10 09:32:35;;;;;;;20.50;2.35;;;;;;;-145.00;39.05;72836.84;5074665;28;20052;-78
2023/08/10 09:35:02;;;;;;;33.13;3.13;;;;;;;-145.00;35.38;72755.66;5073718;28;20050;-76
2023/08/10 09:37:29;;;;;;;10.82;1.80;;;;;;;-145.00;36.43;72701.53;5075448;28;20078;-77
2023/08/10 09:40:01;;;;;;;24.05;2.60;;;;;;;-145.00;32.92;72714.03;5065020;28;20698;-77
2023/08/10 09:42:30;;;;;;;28.65;3.08;;;;;;;-145.00;34.04;72747.34;5068190;28;20040;-77
2023/08/10 09:45:00;;;;;;;26.80;2.78;;;;;;;-145.00;35.17;72764.00;5074179;28;20412;-77
2023/08/10 09:47:27;;;;;;;19.83;2.00;;;;;;;-145.00;36.49;72784.81;5074599;28;20045;-76
2023/08/10 09:49:56;;;;;;;33.47;2.90;;;;;;;-145.00;35.06;72784.81;5074488;28;20488;-77
2023/08/10 09:52:23;;;;;;;44.35;3.58;;;;;;;-145.00;35.31;72797.31;5073634;28;20539;-76
2023/08/10 09:54:51;;;;;;;34.30;3.40;;;;;;;-145.00;35.31;72791.06;5073993;28;20045;-77
2023/08/10 09:57:18;;;;;;;18.55;1.98;;;;;;;-145.00;35.29;72764.00;5074532;28;20120;-77
2023/08/10 09:59:46;;;;;;;16.00;2.17;;;;;;;-145.00;34.41;72768.16;5075635;28;20404;-76
2023/08/10 10:02:15;;;;;;;22.15;2.47;;;;;;;-145.00;33.27;72747.34;5074891;28;20040;-76
2023/08/10 10:04:42;;;;;;;20.52;2.40;;;;;;;-145.00;32.63;72801.47;5074826;28;20393;-77
2023/08/10 10:07:09;;;;;;;23.02;2.70;;;;;;;-145.00;34.63;72784.81;5066281;28;20047;-76
2023/08/10 10:09:38;;;;;;;29.15;3.42;;;;;;;-145.00;34.80;72751.50;5073904;28;20127;-77
2023/08/10 10:12:08;;;;;;;23.52;2.50;;;;;;;-145.00;34.17;72743.19;5072556;28;20051;-77
2023/08/10 10:14:39;;;;;;;23.33;2.50;;;;;;;-145.00;35.12;72734.84;5073504;28;20408;-76
2023/08/10 10:17:07;;;;;;;34.22;3.03;;;;;;;-145.00;32.98;72809.78;5072096;28;20040;-76
2023/08/10 10:19:38;;;;;;;8.63;1.58;;;;;;;-145.00;34.23;72774.41;5073885;28;20048;-76
2023/08/10 10:22:05;;;;;;;21.55;2.47;;;;;;;-145.00;32.40;72720.28;5073575;28;20053;-76
2023/08/10 10:24:32;;;;;;;9.95;1.50;;;;;;;-145.00;33.65;72689.06;5063507;28;20770;-77
2023/08/10 10:29:59;;;;;;;28.85;2.67;;;;;;;-145.00;30.64;72818.13;5077334;28;20064;-76
2023/08/10 10:32:26;;;;;;;36.20;3.50;;;;;;;-145.00;32.30;72664.06;5072348;28;20048;-77
2023/08/10 10:34:54;;;;;;;34.53;3.00;;;;;;;-145.00;30.98;72651.59;5072762;28;20048;-77
2023/08/10 10:37:28;;;;;;;20.33;2.25;;;;;;;-145.00;31.29;72647.41;5072622;28;20044;-77
2023/08/10 10:40:14;;;;;;;22.08;2.42;;;;;;;-145.00;32.62;72747.34;5071708;28;20045;-77
2023/08/10 10:43:06;;;;;;;29.05;2.50;;;;;;;-145.00;32.04;72776.47;5071998;28;20048;-77
2023/08/10 10:45:35;;;;;;;24.10;2.50;;;;;;;-145.00;31.62;72705.69;5066238;28;20040;-77
2023/08/10 10:48:02;;;;;;;32.88;2.97;;;;;;;-145.00;30.41;72857.66;5072128;28;20530;-77
2023/08/10 10:50:31;;;;;;;27.98;2.53;;;;;;;-145.00;30.68;72813.94;5071306;28;20048;-77
2023/08/10 10:52:59;;;;;;;31.45;2.72;;;;;;;-145.00;30.94;72736.94;5069698;28;20055;-76
2023/08/10 10:55:28;;;;;;;20.77;2.38;;;;;;;-145.00;32.82;72703.63;5079802;28;20060;-77
2023/08/10 10:57:55;;;;;;;31.85;2.85;;;;;;;-145.00;33.66;72668.22;5072540;28;20070;-76
2023/08/10 11:00:24;;;;;;;32.40;3.08;;;;;;;-145.00;32.56;72612.03;5072127;28;20453;-76
2023/08/10 11:02:51;;;;;;;28.05;2.83;;;;;;;-145.00;32.21;72545.41;5072349;28;20482;-77
2023/08/10 11:05:19;;;;;;;25.40;2.55;;;;;;;-145.00;31.33;72507.94;5072302;28;20075;-77
2023/08/10 11:07:48;;;;;;;24.90;2.55;;;;;;;-145.00;32.19;72520.44;5073453;28;20499;-77
2023/08/10 11:10:18;;;;;;;21.38;2.85;;;;;;;-145.00;30.70;72505.88;5066287;28;20041;-77
2023/08/10 11:12:47;;;;;;;22.63;2.88;;;;;;;-145.00;31.32;72543.34;5074199;28;20495;-76